sensor_id;sensor_type;location;lat;lon;timestamp;temperature;humidity
7846;DHT22;3968;51.424;6.788;2022-12-07T00:01:15;6.60;99.90
7846;DHT22;3968;51.424;6.788;2022-12-07T00:03:43;6.50;99.90
7846;DHT22;3968;51.424;6.788;2022-12-07T00:06:10;6.60;99.90
7846;DHT22;3968;51.424;6.788;2022-12-07T00:08:36;6.50;99.90
7846;DHT22;3968;51.424;6.788;2022-12-07T00:11:04;6.50;99.90
7846;DHT22;3968;51.424;6.788;2022-12-07T00:13:31;6.50;99.90
7846;DHT22;3968;51.424;6.788;2022-12-07T00:16:01;6.50;99.90
7846;DHT22;3968;51.424;6.788;2022-12-07T00:18:27;6.50;99.90
7846;DHT22;3968;51.424;6.788;2022-12-07T00:20:52;6.50;99.90
7846;DHT22;3968;51.424;6.788;2022-12-07T00:23:18;6.40;99.90
7846;DHT22;3968;51.424;6.788;2022-12-07T00:25:43;6.50;99.90
7846;DHT22;3968;51.424;6.788;2022-12-07T00:28:09;6.50;99.90
7846;DHT22;3968;51.424;6.788;2022-12-07T00:30:36;6.50;99.90
7846;DHT22;3968;51.424;6.788;2022-12-07T00:33:01;6.50;99.90
7846;DHT22;3968;51.424;6.788;2022-12-07T00:35:27;6.40;99.90
7846;DHT22;3968;51.424;6.788;2022-12-07T00:37:52;6.30;99.90
7846;DHT22;3968;51.424;6.788;2022-12-07T00:40:18;6.30;99.90
7846;DHT22;3968;51.424;6.788;2022-12-07T00:42:44;6.40;99.90
7846;DHT22;3968;51.424;6.788;2022-12-07T00:45:09;6.40;99.90
7846;DHT22;3968;51.424;6.788;2022-12-07T00:47:35;6.40;99.90
7846;DHT22;3968;51.424;6.788;2022-12-07T00:50:00;6.50;99.90
7846;DHT22;3968;51.424;6.788;2022-12-07T00:52:26;6.50;99.90
7846;DHT22;3968;51.424;6.788;2022-12-07T00:54:52;6.50;99.90
7846;DHT22;3968;51.424;6.788;2022-12-07T00:57:17;6.50;99.90
7846;DHT22;3968;51.424;6.788;2022-12-07T00:59:43;6.40;99.90
7846;DHT22;3968;51.424;6.788;2022-12-07T01:02:09;6.40;99.90
7846;DHT22;3968;51.424;6.788;2022-12-07T01:04:34;6.40;99.90
7846;DHT22;3968;51.424;6.788;2022-12-07T01:07:00;6.40;99.90
7846;DHT22;3968;51.424;6.788;2022-12-07T01:09:25;6.40;99.90
7846;DHT22;3968;51.424;6.788;2022-12-07T01:11:51;6.40;99.90
7846;DHT22;3968;51.424;6.788;2022-12-07T01:14:18;6.40;99.90
7846;DHT22;3968;51.424;6.788;2022-12-07T01:16:44;6.40;99.90
7846;DHT22;3968;51.424;6.788;2022-12-07T01:19:09;6.40;99.90
7846;DHT22;3968;51.424;6.788;2022-12-07T01:21:35;6.50;99.90
7846;DHT22;3968;51.424;6.788;2022-12-07T01:24:04;6.50;99.90
7846;DHT22;3968;51.424;6.788;2022-12-07T01:26:30;6.40;99.90
7846;DHT22;3968;51.424;6.788;2022-12-07T01:28:56;6.50;99.90
7846;DHT22;3968;51.424;6.788;2022-12-07T01:31:25;6.50;99.90
7846;DHT22;3968;51.424;6.788;2022-12-07T01:33:53;6.50;99.90
7846;DHT22;3968;51.424;6.788;2022-12-07T01:36:29;6.50;99.90
7846;DHT22;3968;51.424;6.788;2022-12-07T01:38:57;6.60;99.90
7846;DHT22;3968;51.424;6.788;2022-12-07T01:41:26;6.50;99.90
7846;DHT22;3968;51.424;6.788;2022-12-07T01:46:33;6.30;99.90
7846;DHT22;3968;51.424;6.788;2022-12-07T01:48:59;6.30;99.90
7846;DHT22;3968;51.424;6.788;2022-12-07T01:51:25;6.30;99.90
7846;DHT22;3968;51.424;6.788;2022-12-07T01:53:52;6.40;99.90
7846;DHT22;3968;51.424;6.788;2022-12-07T01:56:20;6.40;99.90
7846;DHT22;3968;51.424;6.788;2022-12-07T01:58:49;6.40;99.90
7846;DHT22;3968;51.424;6.788;2022-12-07T02:01:14;6.40;99.90
7846;DHT22;3968;51.424;6.788;2022-12-07T02:03:42;6.40;99.90
7846;DHT22;3968;51.424;6.788;2022-12-07T02:06:11;6.40;99.90
7846;DHT22;3968;51.424;6.788;2022-12-07T02:08:37;6.40;99.90
7846;DHT22;3968;51.424;6.788;2022-12-07T02:11:04;6.30;99.90
7846;DHT22;3968;51.424;6.788;2022-12-07T02:13:34;6.30;99.90
7846;DHT22;3968;51.424;6.788;2022-12-07T02:24:45;6.20;99.90
7846;DHT22;3968;51.424;6.788;2022-12-07T02:30:00;6.10;99.90
7846;DHT22;3968;51.424;6.788;2022-12-07T02:32:27;6.20;99.90
7846;DHT22;3968;51.424;6.788;2022-12-07T02:35:11;6.10;99.90
7846;DHT22;3968;51.424;6.788;2022-12-07T02:38:22;6.20;99.90
7846;DHT22;3968;51.424;6.788;2022-12-07T02:41:01;6.20;99.90
7846;DHT22;3968;51.424;6.788;2022-12-07T02:43:30;6.10;99.90
7846;DHT22;3968;51.424;6.788;2022-12-07T02:46:01;6.10;99.90
7846;DHT22;3968;51.424;6.788;2022-12-07T02:48:28;6.10;99.90
7846;DHT22;3968;51.424;6.788;2022-12-07T02:50:55;6.00;99.90
7846;DHT22;3968;51.424;6.788;2022-12-07T02:53:37;6.00;99.90
7846;DHT22;3968;51.424;6.788;2022-12-07T02:59:28;6.00;99.90
7846;DHT22;3968;51.424;6.788;2022-12-07T03:07:29;6.00;99.90
7846;DHT22;3968;51.424;6.788;2022-12-07T03:10:17;6.00;99.90
7846;DHT22;3968;51.424;6.788;2022-12-07T03:18:30;6.10;99.90
7846;DHT22;3968;51.424;6.788;2022-12-07T03:21:03;6.10;99.90
7846;DHT22;3968;51.424;6.788;2022-12-07T03:23:33;6.00;99.90
7846;DHT22;3968;51.424;6.788;2022-12-07T03:26:01;6.00;99.90
7846;DHT22;3968;51.424;6.788;2022-12-07T03:28:33;6.00;99.90
7846;DHT22;3968;51.424;6.788;2022-12-07T03:31:14;6.00;99.90
7846;DHT22;3968;51.424;6.788;2022-12-07T03:39:03;5.90;99.90
7846;DHT22;3968;51.424;6.788;2022-12-07T03:41:32;5.90;99.90
7846;DHT22;3968;51.424;6.788;2022-12-07T03:43:59;5.90;99.90
7846;DHT22;3968;51.424;6.788;2022-12-07T03:49:34;5.90;99.90
7846;DHT22;3968;51.424;6.788;2022-12-07T03:54:36;5.90;99.90
7846;DHT22;3968;51.424;6.788;2022-12-07T03:57:04;6.00;99.90
7846;DHT22;3968;51.424;6.788;2022-12-07T03:59:30;6.00;99.90
7846;DHT22;3968;51.424;6.788;2022-12-07T04:02:01;6.00;99.90
7846;DHT22;3968;51.424;6.788;2022-12-07T04:04:27;6.00;99.90
7846;DHT22;3968;51.424;6.788;2022-12-07T04:06:53;5.90;99.90
7846;DHT22;3968;51.424;6.788;2022-12-07T04:09:18;5.90;99.90
7846;DHT22;3968;51.424;6.788;2022-12-07T04:11:44;5.90;99.90
7846;DHT22;3968;51.424;6.788;2022-12-07T04:14:10;5.80;99.90
7846;DHT22;3968;51.424;6.788;2022-12-07T04:16:55;5.80;99.90
7846;DHT22;3968;51.424;6.788;2022-12-07T04:19:26;5.80;99.90
7846;DHT22;3968;51.424;6.788;2022-12-07T04:21:52;5.80;99.90
7846;DHT22;3968;51.424;6.788;2022-12-07T04:24:18;5.80;99.90
7846;DHT22;3968;51.424;6.788;2022-12-07T04:26:44;5.90;99.90
7846;DHT22;3968;51.424;6.788;2022-12-07T04:29:11;5.80;99.90
7846;DHT22;3968;51.424;6.788;2022-12-07T04:31:36;5.80;99.90
7846;DHT22;3968;51.424;6.788;2022-12-07T04:34:03;5.80;99.90
7846;DHT22;3968;51.424;6.788;2022-12-07T04:36:29;5.80;99.90
7846;DHT22;3968;51.424;6.788;2022-12-07T04:38:55;5.70;99.90
7846;DHT22;3968;51.424;6.788;2022-12-07T04:41:21;5.60;99.90
7846;DHT22;3968;51.424;6.788;2022-12-07T04:43:53;5.60;99.90
7846;DHT22;3968;51.424;6.788;2022-12-07T04:46:19;5.60;99.90
7846;DHT22;3968;51.424;6.788;2022-12-07T04:48:45;5.60;99.90
7846;DHT22;3968;51.424;6.788;2022-12-07T04:51:10;5.60;99.90
7846;DHT22;3968;51.424;6.788;2022-12-07T04:53:36;5.60;99.90
7846;DHT22;3968;51.424;6.788;2022-12-07T04:56:02;5.60;99.90
7846;DHT22;3968;51.424;6.788;2022-12-07T04:58:27;5.50;99.90
7846;DHT22;3968;51.424;6.788;2022-12-07T05:00:56;5.50;99.90
7846;DHT22;3968;51.424;6.788;2022-12-07T05:03:21;5.60;99.90
7846;DHT22;3968;51.424;6.788;2022-12-07T05:05:47;5.50;99.90
7846;DHT22;3968;51.424;6.788;2022-12-07T05:08:13;5.60;99.90
7846;DHT22;3968;51.424;6.788;2022-12-07T05:10:38;5.60;99.90
7846;DHT22;3968;51.424;6.788;2022-12-07T05:13:04;5.60;99.90
7846;DHT22;3968;51.424;6.788;2022-12-07T05:15:29;5.70;99.90
7846;DHT22;3968;51.424;6.788;2022-12-07T05:17:55;5.60;99.90
7846;DHT22;3968;51.424;6.788;2022-12-07T05:20:20;5.60;99.90
7846;DHT22;3968;51.424;6.788;2022-12-07T05:22:46;5.60;99.90
7846;DHT22;3968;51.424;6.788;2022-12-07T05:25:12;5.60;99.90
7846;DHT22;3968;51.424;6.788;2022-12-07T05:27:38;5.70;99.90
7846;DHT22;3968;51.424;6.788;2022-12-07T05:30:05;5.70;99.90
7846;DHT22;3968;51.424;6.788;2022-12-07T05:32:30;5.70;99.90
7846;DHT22;3968;51.424;6.788;2022-12-07T05:34:56;5.70;99.90
7846;DHT22;3968;51.424;6.788;2022-12-07T05:37:22;5.70;99.90
7846;DHT22;3968;51.424;6.788;2022-12-07T05:39:47;5.70;99.90
7846;DHT22;3968;51.424;6.788;2022-12-07T05:42:13;5.70;99.90
7846;DHT22;3968;51.424;6.788;2022-12-07T05:44:40;5.70;99.90
7846;DHT22;3968;51.424;6.788;2022-12-07T05:47:06;5.70;99.90
7846;DHT22;3968;51.424;6.788;2022-12-07T05:49:32;5.70;99.90
7846;DHT22;3968;51.424;6.788;2022-12-07T05:51:57;5.70;99.90
7846;DHT22;3968;51.424;6.788;2022-12-07T05:54:23;5.70;99.90
7846;DHT22;3968;51.424;6.788;2022-12-07T05:56:49;5.70;99.90
7846;DHT22;3968;51.424;6.788;2022-12-07T05:59:14;5.70;99.90
7846;DHT22;3968;51.424;6.788;2022-12-07T06:04:16;5.70;99.90
7846;DHT22;3968;51.424;6.788;2022-12-07T06:06:41;5.70;99.90
7846;DHT22;3968;51.424;6.788;2022-12-07T06:09:07;5.70;99.90
7846;DHT22;3968;51.424;6.788;2022-12-07T06:11:33;5.70;99.90
7846;DHT22;3968;51.424;6.788;2022-12-07T06:14:17;5.70;99.90
7846;DHT22;3968;51.424;6.788;2022-12-07T06:16:43;5.70;99.90
7846;DHT22;3968;51.424;6.788;2022-12-07T06:19:09;5.70;99.90
7846;DHT22;3968;51.424;6.788;2022-12-07T06:21:34;5.70;99.90
7846;DHT22;3968;51.424;6.788;2022-12-07T06:24:00;5.70;99.90
7846;DHT22;3968;51.424;6.788;2022-12-07T06:26:25;5.70;99.90
7846;DHT22;3968;51.424;6.788;2022-12-07T06:28:51;5.70;99.90
7846;DHT22;3968;51.424;6.788;2022-12-07T06:31:17;5.60;99.90
7846;DHT22;3968;51.424;6.788;2022-12-07T06:33:43;5.70;99.90
7846;DHT22;3968;51.424;6.788;2022-12-07T06:36:09;5.70;99.90
7846;DHT22;3968;51.424;6.788;2022-12-07T06:38:35;5.70;99.90
7846;DHT22;3968;51.424;6.788;2022-12-07T06:41:00;5.70;99.90
7846;DHT22;3968;51.424;6.788;2022-12-07T06:43:26;5.70;99.90
7846;DHT22;3968;51.424;6.788;2022-12-07T06:45:52;5.70;99.90
7846;DHT22;3968;51.424;6.788;2022-12-07T06:48:18;5.70;99.90
7846;DHT22;3968;51.424;6.788;2022-12-07T06:50:47;5.70;99.90
7846;DHT22;3968;51.424;6.788;2022-12-07T06:53:13;5.70;99.90
7846;DHT22;3968;51.424;6.788;2022-12-07T06:55:38;5.70;99.90
7846;DHT22;3968;51.424;6.788;2022-12-07T06:58:04;5.70;99.90
7846;DHT22;3968;51.424;6.788;2022-12-07T07:00:30;5.60;99.90
7846;DHT22;3968;51.424;6.788;2022-12-07T07:02:55;5.70;99.90
7846;DHT22;3968;51.424;6.788;2022-12-07T07:05:21;5.60;99.90
7846;DHT22;3968;51.424;6.788;2022-12-07T07:07:50;5.60;99.90
7846;DHT22;3968;51.424;6.788;2022-12-07T07:10:16;5.60;99.90
7846;DHT22;3968;51.424;6.788;2022-12-07T07:12:41;5.70;99.90
7846;DHT22;3968;51.424;6.788;2022-12-07T07:15:07;5.60;99.90
7846;DHT22;3968;51.424;6.788;2022-12-07T07:17:33;5.70;99.90
7846;DHT22;3968;51.424;6.788;2022-12-07T07:19:59;5.60;99.90
7846;DHT22;3968;51.424;6.788;2022-12-07T07:22:24;5.60;99.90
7846;DHT22;3968;51.424;6.788;2022-12-07T07:24:50;5.60;99.90
7846;DHT22;3968;51.424;6.788;2022-12-07T07:27:16;5.50;99.90
7846;DHT22;3968;51.424;6.788;2022-12-07T07:29:41;5.60;99.90
7846;DHT22;3968;51.424;6.788;2022-12-07T07:32:07;5.60;99.90
7846;DHT22;3968;51.424;6.788;2022-12-07T07:34:33;5.50;99.90
7846;DHT22;3968;51.424;6.788;2022-12-07T07:36:59;5.60;99.90
7846;DHT22;3968;51.424;6.788;2022-12-07T07:39:24;5.60;99.90
7846;DHT22;3968;51.424;6.788;2022-12-07T07:41:50;5.50;99.90
7846;DHT22;3968;51.424;6.788;2022-12-07T07:44:15;5.50;99.90
7846;DHT22;3968;51.424;6.788;2022-12-07T07:46:41;5.50;99.90
7846;DHT22;3968;51.424;6.788;2022-12-07T07:49:06;5.50;99.90
7846;DHT22;3968;51.424;6.788;2022-12-07T07:51:32;5.50;99.90
7846;DHT22;3968;51.424;6.788;2022-12-07T07:53:58;5.50;99.90
7846;DHT22;3968;51.424;6.788;2022-12-07T07:56:23;5.50;99.90
7846;DHT22;3968;51.424;6.788;2022-12-07T07:58:52;5.50;99.90
7846;DHT22;3968;51.424;6.788;2022-12-07T08:01:18;5.50;99.90
7846;DHT22;3968;51.424;6.788;2022-12-07T08:03:48;5.60;99.90
7846;DHT22;3968;51.424;6.788;2022-12-07T08:06:14;5.60;99.90
7846;DHT22;3968;51.424;6.788;2022-12-07T08:08:39;5.60;99.90
7846;DHT22;3968;51.424;6.788;2022-12-07T08:11:06;5.60;99.90
7846;DHT22;3968;51.424;6.788;2022-12-07T08:13:32;5.60;99.90
7846;DHT22;3968;51.424;6.788;2022-12-07T08:15:58;5.60;99.90
7846;DHT22;3968;51.424;6.788;2022-12-07T08:18:23;5.60;99.90
7846;DHT22;3968;51.424;6.788;2022-12-07T08:20:49;5.60;99.90
7846;DHT22;3968;51.424;6.788;2022-12-07T08:23:14;5.60;99.90
7846;DHT22;3968;51.424;6.788;2022-12-07T08:25:40;5.60;99.90
7846;DHT22;3968;51.424;6.788;2022-12-07T08:28:06;5.50;99.90
7846;DHT22;3968;51.424;6.788;2022-12-07T08:30:32;5.50;99.90
7846;DHT22;3968;51.424;6.788;2022-12-07T08:32:58;5.50;99.90
7846;DHT22;3968;51.424;6.788;2022-12-07T08:35:24;5.40;99.90
7846;DHT22;3968;51.424;6.788;2022-12-07T08:37:50;5.40;99.90
7846;DHT22;3968;51.424;6.788;2022-12-07T08:40:16;5.40;99.90
7846;DHT22;3968;51.424;6.788;2022-12-07T08:42:47;5.40;99.90
7846;DHT22;3968;51.424;6.788;2022-12-07T08:45:14;5.40;99.90
7846;DHT22;3968;51.424;6.788;2022-12-07T08:48:02;5.40;99.90
7846;DHT22;3968;51.424;6.788;2022-12-07T08:50:29;5.40;99.90
7846;DHT22;3968;51.424;6.788;2022-12-07T08:52:57;5.40;99.90
7846;DHT22;3968;51.424;6.788;2022-12-07T08:55:24;5.40;99.90
7846;DHT22;3968;51.424;6.788;2022-12-07T08:57:50;5.40;99.90
7846;DHT22;3968;51.424;6.788;2022-12-07T09:00:16;5.40;99.90
7846;DHT22;3968;51.424;6.788;2022-12-07T09:02:43;5.40;99.90
7846;DHT22;3968;51.424;6.788;2022-12-07T09:05:10;5.40;99.90
7846;DHT22;3968;51.424;6.788;2022-12-07T09:07:35;5.40;99.90
7846;DHT22;3968;51.424;6.788;2022-12-07T09:10:03;5.30;99.90
7846;DHT22;3968;51.424;6.788;2022-12-07T09:12:29;5.40;99.90
7846;DHT22;3968;51.424;6.788;2022-12-07T09:14:55;5.50;99.90
7846;DHT22;3968;51.424;6.788;2022-12-07T09:17:20;5.50;99.90
7846;DHT22;3968;51.424;6.788;2022-12-07T09:19:46;5.60;99.90
7846;DHT22;3968;51.424;6.788;2022-12-07T09:22:12;5.70;99.90
7846;DHT22;3968;51.424;6.788;2022-12-07T09:24:37;5.70;99.90
7846;DHT22;3968;51.424;6.788;2022-12-07T09:27:03;5.70;99.90
7846;DHT22;3968;51.424;6.788;2022-12-07T09:29:30;5.80;99.90
7846;DHT22;3968;51.424;6.788;2022-12-07T09:31:56;5.80;99.90
7846;DHT22;3968;51.424;6.788;2022-12-07T09:34:21;5.90;99.90
7846;DHT22;3968;51.424;6.788;2022-12-07T09:36:47;6.00;99.90
7846;DHT22;3968;51.424;6.788;2022-12-07T09:39:12;6.00;99.90
7846;DHT22;3968;51.424;6.788;2022-12-07T09:41:43;6.10;99.90
7846;DHT22;3968;51.424;6.788;2022-12-07T09:44:23;6.10;99.90
7846;DHT22;3968;51.424;6.788;2022-12-07T09:46:49;6.10;99.90
7846;DHT22;3968;51.424;6.788;2022-12-07T09:49:21;6.10;99.90
7846;DHT22;3968;51.424;6.788;2022-12-07T09:52:17;6.10;99.90
7846;DHT22;3968;51.424;6.788;2022-12-07T09:54:47;6.10;99.90
7846;DHT22;3968;51.424;6.788;2022-12-07T09:57:14;6.20;99.90
7846;DHT22;3968;51.424;6.788;2022-12-07T09:59:40;6.20;99.90
7846;DHT22;3968;51.424;6.788;2022-12-07T10:03:00;6.20;99.90
7846;DHT22;3968;51.424;6.788;2022-12-07T10:07:56;6.30;99.90
7846;DHT22;3968;51.424;6.788;2022-12-07T10:10:33;6.30;99.90
7846;DHT22;3968;51.424;6.788;2022-12-07T10:13:06;6.30;99.90
7846;DHT22;3968;51.424;6.788;2022-12-07T10:15:54;6.30;99.90
7846;DHT22;3968;51.424;6.788;2022-12-07T10:18:41;6.40;99.90
7846;DHT22;3968;51.424;6.788;2022-12-07T10:21:26;6.40;99.90
7846;DHT22;3968;51.424;6.788;2022-12-07T10:26:39;6.60;99.90
7846;DHT22;3968;51.424;6.788;2022-12-07T10:31:44;6.70;99.90
7846;DHT22;3968;51.424;6.788;2022-12-07T10:37:17;6.70;99.90
7846;DHT22;3968;51.424;6.788;2022-12-07T10:40:18;6.70;99.90
7846;DHT22;3968;51.424;6.788;2022-12-07T10:42:34;6.80;99.90
7846;DHT22;3968;51.424;6.788;2022-12-07T10:45:14;6.90;99.90
7846;DHT22;3968;51.424;6.788;2022-12-07T10:56:48;6.80;99.90
7846;DHT22;3968;51.424;6.788;2022-12-07T10:59:39;6.90;99.90
7846;DHT22;3968;51.424;6.788;2022-12-07T11:02:32;7.00;99.90
7846;DHT22;3968;51.424;6.788;2022-12-07T11:05:23;7.00;99.90
7846;DHT22;3968;51.424;6.788;2022-12-07T11:19:16;6.90;99.90
7846;DHT22;3968;51.424;6.788;2022-12-07T11:27:35;7.10;99.90
7846;DHT22;3968;51.424;6.788;2022-12-07T11:33:01;7.20;99.90
7846;DHT22;3968;51.424;6.788;2022-12-07T11:35:49;7.20;99.90
7846;DHT22;3968;51.424;6.788;2022-12-07T11:38:37;7.20;99.90
7846;DHT22;3968;51.424;6.788;2022-12-07T11:41:08;7.20;99.90
7846;DHT22;3968;51.424;6.788;2022-12-07T11:46:54;7.30;99.90
7846;DHT22;3968;51.424;6.788;2022-12-07T11:51:49;7.10;99.90
7846;DHT22;3968;51.424;6.788;2022-12-07T11:54:42;7.00;99.90
7846;DHT22;3968;51.424;6.788;2022-12-07T11:57:18;7.00;99.90
7846;DHT22;3968;51.424;6.788;2022-12-07T11:59:52;7.00;99.90
7846;DHT22;3968;51.424;6.788;2022-12-07T12:02:32;7.00;99.90
7846;DHT22;3968;51.424;6.788;2022-12-07T12:05:17;7.00;99.90
7846;DHT22;3968;51.424;6.788;2022-12-07T12:07:45;7.00;99.90
7846;DHT22;3968;51.424;6.788;2022-12-07T12:10:42;7.10;99.90
7846;DHT22;3968;51.424;6.788;2022-12-07T12:16:07;7.20;99.90
7846;DHT22;3968;51.424;6.788;2022-12-07T12:21:28;7.30;99.90
7846;DHT22;3968;51.424;6.788;2022-12-07T12:24:11;7.40;99.90
7846;DHT22;3968;51.424;6.788;2022-12-07T12:26:40;7.30;99.90
7846;DHT22;3968;51.424;6.788;2022-12-07T12:29:28;7.20;99.90
7846;DHT22;3968;51.424;6.788;2022-12-07T12:32:22;7.30;99.90
7846;DHT22;3968;51.424;6.788;2022-12-07T12:35:02;7.30;99.90
7846;DHT22;3968;51.424;6.788;2022-12-07T12:42:52;7.40;99.90
7846;DHT22;3968;51.424;6.788;2022-12-07T12:45:24;7.40;99.90
7846;DHT22;3968;51.424;6.788;2022-12-07T12:47:57;7.40;99.90
7846;DHT22;3968;51.424;6.788;2022-12-07T12:50:43;7.40;99.90
7846;DHT22;3968;51.424;6.788;2022-12-07T12:53:24;7.30;99.90
7846;DHT22;3968;51.424;6.788;2022-12-07T12:58:39;7.40;99.90
7846;DHT22;3968;51.424;6.788;2022-12-07T13:01:41;7.30;99.90
7846;DHT22;3968;51.424;6.788;2022-12-07T13:04:38;7.30;99.90
7846;DHT22;3968;51.424;6.788;2022-12-07T13:07:08;7.40;99.90
7846;DHT22;3968;51.424;6.788;2022-12-07T13:09:34;7.30;99.90
7846;DHT22;3968;51.424;6.788;2022-12-07T13:12:20;7.30;99.90
7846;DHT22;3968;51.424;6.788;2022-12-07T13:25:30;7.40;99.90
7846;DHT22;3968;51.424;6.788;2022-12-07T13:33:35;7.30;99.90
7846;DHT22;3968;51.424;6.788;2022-12-07T13:36:00;7.30;99.90
7846;DHT22;3968;51.424;6.788;2022-12-07T13:38:33;7.30;99.90
7846;DHT22;3968;51.424;6.788;2022-12-07T13:41:16;7.30;99.90
7846;DHT22;3968;51.424;6.788;2022-12-07T13:46:11;7.10;99.90
7846;DHT22;3968;51.424;6.788;2022-12-07T13:48:49;7.10;99.90
7846;DHT22;3968;51.424;6.788;2022-12-07T13:51:24;7.10;99.90
7846;DHT22;3968;51.424;6.788;2022-12-07T13:53:59;7.10;99.90
7846;DHT22;3968;51.424;6.788;2022-12-07T13:56:35;7.10;99.90
7846;DHT22;3968;51.424;6.788;2022-12-07T13:59:02;7.10;99.90
7846;DHT22;3968;51.424;6.788;2022-12-07T14:01:30;7.10;99.90
7846;DHT22;3968;51.424;6.788;2022-12-07T14:04:00;7.10;99.90
7846;DHT22;3968;51.424;6.788;2022-12-07T14:06:51;7.10;99.90
7846;DHT22;3968;51.424;6.788;2022-12-07T14:09:18;7.00;99.90
7846;DHT22;3968;51.424;6.788;2022-12-07T14:11:45;7.10;99.90
7846;DHT22;3968;51.424;6.788;2022-12-07T14:14:15;7.00;99.90
7846;DHT22;3968;51.424;6.788;2022-12-07T14:16:42;7.00;99.90
7846;DHT22;3968;51.424;6.788;2022-12-07T14:22:15;7.00;99.90
7846;DHT22;3968;51.424;6.788;2022-12-07T14:24:43;6.90;99.90
7846;DHT22;3968;51.424;6.788;2022-12-07T14:27:20;6.90;99.90
7846;DHT22;3968;51.424;6.788;2022-12-07T14:29:46;7.00;99.90
7846;DHT22;3968;51.424;6.788;2022-12-07T14:32:24;7.00;99.90
7846;DHT22;3968;51.424;6.788;2022-12-07T14:37:28;6.90;99.90
7846;DHT22;3968;51.424;6.788;2022-12-07T14:39:54;6.90;99.90
7846;DHT22;3968;51.424;6.788;2022-12-07T14:42:20;6.90;99.90
7846;DHT22;3968;51.424;6.788;2022-12-07T14:44:48;6.80;99.90
7846;DHT22;3968;51.424;6.788;2022-12-07T14:47:13;6.80;99.90
7846;DHT22;3968;51.424;6.788;2022-12-07T14:49:40;6.80;99.90
7846;DHT22;3968;51.424;6.788;2022-12-07T14:52:19;6.80;99.90
7846;DHT22;3968;51.424;6.788;2022-12-07T14:54:45;6.80;99.90
7846;DHT22;3968;51.424;6.788;2022-12-07T14:57:11;6.80;99.90
7846;DHT22;3968;51.424;6.788;2022-12-07T14:59:37;6.70;99.90
7846;DHT22;3968;51.424;6.788;2022-12-07T15:02:03;6.70;99.90
7846;DHT22;3968;51.424;6.788;2022-12-07T15:04:29;6.70;99.90
7846;DHT22;3968;51.424;6.788;2022-12-07T15:07:00;6.70;99.90
7846;DHT22;3968;51.424;6.788;2022-12-07T15:09:26;6.70;99.90
7846;DHT22;3968;51.424;6.788;2022-12-07T15:11:52;6.60;99.90
7846;DHT22;3968;51.424;6.788;2022-12-07T15:14:20;6.60;99.90
7846;DHT22;3968;51.424;6.788;2022-12-07T15:16:46;6.60;99.90
7846;DHT22;3968;51.424;6.788;2022-12-07T15:19:17;6.50;99.90
7846;DHT22;3968;51.424;6.788;2022-12-07T15:21:43;6.50;99.90
7846;DHT22;3968;51.424;6.788;2022-12-07T15:24:12;6.50;99.90
7846;DHT22;3968;51.424;6.788;2022-12-07T15:26:39;6.50;99.90
7846;DHT22;3968;51.424;6.788;2022-12-07T15:29:05;6.50;99.90
7846;DHT22;3968;51.424;6.788;2022-12-07T15:31:32;6.50;99.90
7846;DHT22;3968;51.424;6.788;2022-12-07T15:33:58;6.40;99.90
7846;DHT22;3968;51.424;6.788;2022-12-07T15:36:26;6.40;99.90
7846;DHT22;3968;51.424;6.788;2022-12-07T15:38:52;6.40;99.90
7846;DHT22;3968;51.424;6.788;2022-12-07T15:41:18;6.40;99.90
7846;DHT22;3968;51.424;6.788;2022-12-07T15:43:44;6.30;99.90
7846;DHT22;3968;51.424;6.788;2022-12-07T15:46:33;6.40;99.90
7846;DHT22;3968;51.424;6.788;2022-12-07T15:48:59;6.40;99.90
7846;DHT22;3968;51.424;6.788;2022-12-07T15:51:25;6.30;99.90
7846;DHT22;3968;51.424;6.788;2022-12-07T15:53:52;6.30;99.90
7846;DHT22;3968;51.424;6.788;2022-12-07T15:56:17;6.30;99.90
7846;DHT22;3968;51.424;6.788;2022-12-07T15:58:43;6.40;99.90
7846;DHT22;3968;51.424;6.788;2022-12-07T16:01:13;6.30;99.90
7846;DHT22;3968;51.424;6.788;2022-12-07T16:03:39;6.30;99.90
7846;DHT22;3968;51.424;6.788;2022-12-07T16:06:05;6.30;99.90
7846;DHT22;3968;51.424;6.788;2022-12-07T16:08:31;6.30;99.90
7846;DHT22;3968;51.424;6.788;2022-12-07T16:10:56;6.30;99.90
7846;DHT22;3968;51.424;6.788;2022-12-07T16:13:22;6.30;99.90
7846;DHT22;3968;51.424;6.788;2022-12-07T16:15:48;6.30;99.90
7846;DHT22;3968;51.424;6.788;2022-12-07T16:18:13;6.30;99.90
7846;DHT22;3968;51.424;6.788;2022-12-07T16:20:39;6.30;99.90
7846;DHT22;3968;51.424;6.788;2022-12-07T16:23:05;6.30;99.90
7846;DHT22;3968;51.424;6.788;2022-12-07T16:25:32;6.30;99.90
7846;DHT22;3968;51.424;6.788;2022-12-07T16:27:58;6.30;99.90
7846;DHT22;3968;51.424;6.788;2022-12-07T16:30:24;6.40;99.90
7846;DHT22;3968;51.424;6.788;2022-12-07T16:32:51;6.40;99.90
7846;DHT22;3968;51.424;6.788;2022-12-07T16:35:16;6.30;99.90
7846;DHT22;3968;51.424;6.788;2022-12-07T16:37:42;6.40;99.90
7846;DHT22;3968;51.424;6.788;2022-12-07T16:40:09;6.40;99.90
7846;DHT22;3968;51.424;6.788;2022-12-07T16:42:35;6.40;99.90
7846;DHT22;3968;51.424;6.788;2022-12-07T16:45:02;6.40;99.90
7846;DHT22;3968;51.424;6.788;2022-12-07T16:47:27;6.40;99.90
7846;DHT22;3968;51.424;6.788;2022-12-07T16:49:53;6.40;99.90
7846;DHT22;3968;51.424;6.788;2022-12-07T16:52:20;6.50;99.90
7846;DHT22;3968;51.424;6.788;2022-12-07T16:54:46;6.40;99.90
7846;DHT22;3968;51.424;6.788;2022-12-07T16:57:12;6.50;99.90
7846;DHT22;3968;51.424;6.788;2022-12-07T16:59:37;6.40;99.90
7846;DHT22;3968;51.424;6.788;2022-12-07T17:02:03;6.50;99.90
7846;DHT22;3968;51.424;6.788;2022-12-07T17:04:29;6.50;99.90
7846;DHT22;3968;51.424;6.788;2022-12-07T17:06:55;6.50;99.90
7846;DHT22;3968;51.424;6.788;2022-12-07T17:09:20;6.50;99.90
7846;DHT22;3968;51.424;6.788;2022-12-07T17:11:46;6.50;99.90
7846;DHT22;3968;51.424;6.788;2022-12-07T17:14:12;6.50;99.90
7846;DHT22;3968;51.424;6.788;2022-12-07T17:16:56;6.40;99.90
7846;DHT22;3968;51.424;6.788;2022-12-07T17:19:21;6.40;99.90
7846;DHT22;3968;51.424;6.788;2022-12-07T17:21:47;6.40;99.90
7846;DHT22;3968;51.424;6.788;2022-12-07T17:24:15;6.40;99.90
7846;DHT22;3968;51.424;6.788;2022-12-07T17:26:42;6.40;99.90
7846;DHT22;3968;51.424;6.788;2022-12-07T17:29:11;6.40;99.90
7846;DHT22;3968;51.424;6.788;2022-12-07T17:31:37;6.40;99.90
7846;DHT22;3968;51.424;6.788;2022-12-07T17:34:02;6.40;99.90
7846;DHT22;3968;51.424;6.788;2022-12-07T17:36:31;6.40;99.90
7846;DHT22;3968;51.424;6.788;2022-12-07T17:38:57;6.50;99.90
7846;DHT22;3968;51.424;6.788;2022-12-07T17:41:27;6.50;99.90
7846;DHT22;3968;51.424;6.788;2022-12-07T17:44:14;6.40;99.90
7846;DHT22;3968;51.424;6.788;2022-12-07T17:46:40;6.40;99.90
7846;DHT22;3968;51.424;6.788;2022-12-07T17:49:07;6.40;99.90
7846;DHT22;3968;51.424;6.788;2022-12-07T17:51:34;6.40;99.90
7846;DHT22;3968;51.424;6.788;2022-12-07T17:54:18;6.40;99.90
7846;DHT22;3968;51.424;6.788;2022-12-07T17:56:44;6.30;99.90
7846;DHT22;3968;51.424;6.788;2022-12-07T17:59:10;6.30;99.90
7846;DHT22;3968;51.424;6.788;2022-12-07T18:01:37;6.30;99.90
7846;DHT22;3968;51.424;6.788;2022-12-07T18:04:03;6.30;99.90
7846;DHT22;3968;51.424;6.788;2022-12-07T18:06:29;6.30;99.90
7846;DHT22;3968;51.424;6.788;2022-12-07T18:08:55;6.30;99.90
7846;DHT22;3968;51.424;6.788;2022-12-07T18:11:20;6.30;99.90
7846;DHT22;3968;51.424;6.788;2022-12-07T18:13:46;6.30;99.90
7846;DHT22;3968;51.424;6.788;2022-12-07T18:16:14;6.30;99.90
7846;DHT22;3968;51.424;6.788;2022-12-07T18:18:42;6.20;99.90
7846;DHT22;3968;51.424;6.788;2022-12-07T18:21:13;6.20;99.90
7846;DHT22;3968;51.424;6.788;2022-12-07T18:23:42;6.30;99.90
7846;DHT22;3968;51.424;6.788;2022-12-07T18:26:07;6.30;99.90
7846;DHT22;3968;51.424;6.788;2022-12-07T18:28:33;6.30;99.90
7846;DHT22;3968;51.424;6.788;2022-12-07T18:30:58;6.30;99.90
7846;DHT22;3968;51.424;6.788;2022-12-07T18:33:24;6.30;99.90
7846;DHT22;3968;51.424;6.788;2022-12-07T18:35:50;6.30;99.90